Time;durP1;ratioP1;P1;durP2;ratioP2;P2;SDS_P1;SDS_P2;PMS_P1;PMS_P2;Temp;Humidity;BMP_temperature;BMP_pressure;BME280_temperature;BME280_humidity;BME280_pressure;Samples;Min_cycle;Max_cycle;Signal;HPM_P1;HPM_P2
2023/04/06 00:00:28;;;;;;;26.53;11.57;;;;;;;1.53;100.00;101251.94;7399950;19;20941;-40
2023/04/06 00:02:58;;;;;;;23.53;10.33;;;;;;;1.53;100.00;101248.50;7396680;19;20447;-43
2023/04/06 00:05:30;;;;;;;12.93;6.33;;;;;;;1.49;100.00;101255.00;7397259;19;20453;-41
2023/04/06 00:08:03;;;;;;;15.00;6.90;;;;;;;1.39;100.00;101277.81;7396054;19;20459;-41
2023/04/06 00:10:33;;;;;;;9.13;5.20;;;;;;;1.26;100.00;101283.47;7396966;19;20394;-39
2023/04/06 00:13:05;;;;;;;12.97;5.40;;;;;;;1.24;100.00;101279.91;7395171;19;20815;-39
2023/04/06 00:15:35;;;;;;;15.23;5.90;;;;;;;1.18;100.00;101272.66;7398763;19;20399;-39
2023/04/06 00:18:06;;;;;;;13.50;5.93;;;;;;;1.09;100.00;101270.19;7393974;19;20791;-40
2023/04/06 00:20:36;;;;;;;10.80;6.17;;;;;;;1.06;100.00;101270.81;7400292;19;20423;-39
2023/04/06 00:23:05;;;;;;;13.37;5.87;;;;;;;1.09;100.00;101267.66;7396487;19;20436;-42
2023/04/06 00:25:35;;;;;;;10.40;5.90;;;;;;;1.11;100.00;101267.75;7396944;19;20399;-40
2023/04/06 00:28:08;;;;;;;12.60;6.47;;;;;;;1.05;100.00;101263.03;7395392;19;20474;-40
2023/04/06 00:30:37;;;;;;;9.70;5.97;;;;;;;1.10;100.00;101264.34;7397504;19;20407;-41
2023/04/06 00:33:07;;;;;;;13.03;5.20;;;;;;;1.11;100.00;101267.75;7394587;19;20804;-41
2023/04/06 00:35:38;;;;;;;9.90;5.13;;;;;;;1.04;100.00;101264.69;7397256;19;20391;-39
2023/04/06 00:38:08;;;;;;;8.80;5.23;;;;;;;1.00;100.00;101261.72;7393260;19;20450;-40
2023/04/06 00:40:39;;;;;;;10.73;5.37;;;;;;;0.98;100.00;101269.25;7396405;19;21109;-44
2023/04/06 00:43:11;;;;;;;11.70;5.80;;;;;;;0.93;100.00;101270.47;7395240;19;20426;-39
2023/04/06 00:45:42;;;;;;;10.60;5.80;;;;;;;0.96;100.00;101272.41;7398536;19;20396;-40
2023/04/06 00:48:11;;;;;;;10.00;5.40;;;;;;;0.94;100.00;101274.81;7393974;19;21011;-41
2023/04/06 00:50:41;;;;;;;12.27;6.23;;;;;;;0.97;100.00;101274.19;7399439;19;20387;-40
2023/04/06 00:53:11;;;;;;;15.57;6.20;;;;;;;0.95;100.00;101271.50;7393788;19;20422;-40
2023/04/06 00:55:41;;;;;;;13.00;6.27;;;;;;;0.93;100.00;101280.66;7396115;19;20438;-40
2023/04/06 00:58:13;;;;;;;11.73;5.40;;;;;;;0.82;100.00;101284.75;7390989;19;20998;-39
2023/04/06 01:00:43;;;;;;;10.40;5.33;;;;;;;0.77;100.00;101273.31;7398296;19;20758;-38
2023/04/06 01:03:13;;;;;;;10.00;5.43;;;;;;;0.77;100.00;101278.38;7393192;19;20780;-39
2023/04/06 01:05:43;;;;;;;10.47;5.33;;;;;;;0.89;100.00;101279.50;7394518;19;20390;-42
2023/04/06 01:08:14;;;;;;;10.27;6.10;;;;;;;1.03;100.00;101272.19;7390659;19;20426;-42
2023/04/06 01:10:44;;;;;;;8.97;4.83;;;;;;;1.04;100.00;101273.97;7391907;19;20400;-40
2023/04/06 01:13:17;;;;;;;11.33;5.43;;;;;;;0.98;100.00;101278.50;7392298;19;20444;-41
2023/04/06 01:15:46;;;;;;;12.77;5.27;;;;;;;0.84;100.00;101265.47;7392522;19;20403;-42
2023/04/06 01:18:16;;;;;;;10.70;5.50;;;;;;;0.78;100.00;101270.00;7391211;19;20475;-40
2023/04/06 01:20:46;;;;;;;10.33;5.43;;;;;;;0.74;100.00;101268.84;7392719;19;20414;-41
2023/04/06 01:23:18;;;;;;;11.67;5.17;;;;;;;0.57;100.00;101274.03;7389243;19;20422;-41
2023/04/06 01:25:48;;;;;;;10.17;5.30;;;;;;;0.51;100.00;101274.41;7392828;19;20774;-39
2023/04/06 01:28:18;;;;;;;10.23;5.60;;;;;;;0.60;100.00;101284.47;7391423;19;20450;-39
2023/04/06 01:30:47;;;;;;;12.50;5.73;;;;;;;0.58;100.00;101286.91;7394757;19;20404;-39
2023/04/06 01:33:17;;;;;;;9.00;5.40;;;;;;;0.56;100.00;101295.13;7391719;19;20431;-40
2023/04/06 01:35:47;;;;;;;10.73;4.97;;;;;;;0.53;100.00;101299.16;7395861;19;20403;-41
2023/04/06 01:38:20;;;;;;;14.10;6.10;;;;;;;0.58;100.00;101306.31;7393041;19;21683;-40
2023/04/06 01:40:50;;;;;;;11.23;5.33;;;;;;;0.51;100.00;101315.03;7394983;19;20411;-39
2023/04/06 01:43:20;;;;;;;10.90;5.70;;;;;;;0.53;100.00;101318.59;7393799;19;20454;-38
2023/04/06 01:45:50;;;;;;;8.90;4.97;;;;;;;0.48;100.00;101325.78;7394851;19;20403;-40
2023/04/06 01:48:19;;;;;;;9.37;5.00;;;;;;;0.48;100.00;101330.88;7389547;19;20529;-38
2023/04/06 01:50:52;;;;;;;10.10;5.37;;;;;;;0.52;100.00;101329.50;7395409;19;21253;-39
2023/04/06 01:53:26;;;;;;;9.70;5.03;;;;;;;0.48;100.00;101335.94;7391598;19;20473;-40
2023/04/06 01:55:56;;;;;;;12.37;5.80;;;;;;;0.63;100.00;101339.00;7392894;19;20422;-40
2023/04/06 01:58:26;;;;;;;12.27;5.70;;;;;;;0.65;100.00;101340.03;7392069;19;20451;-41
2023/04/06 02:00:55;;;;;;;10.07;5.57;;;;;;;0.60;100.00;101346.31;7393496;19;20419;-42
2023/04/06 02:03:25;;;;;;;9.60;4.70;;;;;;;0.52;100.00;101339.66;7393219;19;20450;-41
2023/04/06 02:05:55;;;;;;;9.87;5.47;;;;;;;0.48;100.00;101345.19;7394683;19;20396;-43
2023/04/06 02:08:28;;;;;;;11.23;5.60;;;;;;;0.57;100.00;101350.22;7393357;19;20411;-41
2023/04/06 02:10:57;;;;;;;9.00;5.47;;;;;;;0.64;100.00;101350.94;7394038;19;20407;-38
2023/04/06 02:13:30;;;;;;;8.17;5.00;;;;;;;0.51;100.00;101345.50;7393183;19;20447;-41
2023/04/06 02:16:01;;;;;;;12.10;5.67;;;;;;;0.48;100.00;101346.13;7395074;19;20391;-40
2023/04/06 02:18:31;;;;;;;11.83;6.07;;;;;;;0.42;100.00;101354.78;7394401;19;20445;-41
2023/04/06 02:21:00;;;;;;;13.27;6.30;;;;;;;0.39;100.00;101356.31;7396088;19;20405;-39
2023/04/06 02:23:33;;;;;;;11.60;6.23;;;;;;;0.38;100.00;101364.69;7392290;19;20435;-38
2023/04/06 02:26:03;;;;;;;12.00;6.10;;;;;;;0.35;100.00;101372.00;7393686;19;20387;-42
2023/04/06 02:28:32;;;;;;;13.97;6.80;;;;;;;0.34;100.00;101367.69;7393105;19;20444;-40
2023/04/06 02:31:02;;;;;;;15.90;6.23;;;;;;;0.24;100.00;101367.56;7393531;19;20460;-40
2023/04/06 02:33:32;;;;;;;10.40;5.80;;;;;;;0.22;100.00;101369.06;7391630;19;20829;-39
2023/04/06 02:36:02;;;;;;;11.17;6.20;;;;;;;0.23;100.00;101378.47;7392860;19;20404;-40
2023/04/06 02:38:34;;;;;;;8.50;5.30;;;;;;;0.22;100.00;101386.84;7393004;19;20439;-43
2023/04/06 02:41:04;;;;;;;10.90;6.00;;;;;;;0.12;100.00;101385.97;7392619;19;20491;-39
2023/04/06 02:43:34;;;;;;;13.43;7.23;;;;;;;0.05;100.00;101388.69;7392587;19;20431;-39
2023/04/06 02:46:04;;;;;;;15.50;6.17;;;;;;;0.07;100.00;101397.34;7393158;19;20395;-38
2023/04/06 02:48:36;;;;;;;11.00;5.67;;;;;;;0.17;100.00;101428.66;7392463;19;20422;-38
2023/04/06 02:51:06;;;;;;;10.27;5.90;;;;;;;0.08;100.00;101442.28;7394856;19;20798;-39
2023/04/06 02:53:38;;;;;;;11.33;5.67;;;;;;;0.13;100.00;101451.22;7392256;19;20464;-39
2023/04/06 02:56:08;;;;;;;10.77;5.73;;;;;;;0.22;100.00;101468.06;7392201;19;20411;-39
2023/04/06 02:58:38;;;;;;;14.47;6.20;;;;;;;0.12;100.00;101466.31;7390117;19;20468;-38
2023/04/06 03:01:08;;;;;;;13.70;6.70;;;;;;;0.13;100.00;101471.53;7392291;19;20415;-39
2023/04/06 03:03:37;;;;;;;13.90;6.70;;;;;;;0.17;100.00;101479.44;7391473;19;20533;-39
2023/04/06 03:06:08;;;;;;;14.17;7.20;;;;;;;0.15;100.00;101486.00;7392431;19;20479;-39
2023/04/06 03:08:40;;;;;;;17.95;7.20;;;;;;;0.01;100.00;101472.91;7392384;19;20946;-40
2023/04/06 03:11:10;;;;;;;12.30;6.40;;;;;;;-0.09;100.00;101465.16;7392007;19;20171;-40
2023/04/06 03:13:40;;;;;;;13.33;7.50;;;;;;;-0.17;100.00;101478.00;7390712;19;20805;-39
2023/04/06 03:16:10;;;;;;;57.33;26.60;;;;;;;1.23;100.00;101590.84;7390851;19;20942;-40
2023/04/06 03:18:40;;;;;;;25.43;12.90;;;;;;;2.46;100.00;101717.34;7390054;19;20422;-38
2023/04/06 03:21:10;;;;;;;43.17;21.60;;;;;;;2.67;100.00;101684.38;7391573;19;20387;-40
2023/04/06 03:23:42;;;;;;;39.07;16.53;;;;;;;2.49;100.00;101602.97;7390496;19;20439;-38
2023/04/06 03:26:12;;;;;;;31.80;11.93;;;;;;;2.26;100.00;101522.88;7391560;19;20403;-39
2023/04/06 03:28:42;;;;;;;21.80;10.67;;;;;;;2.30;100.00;101490.94;7390522;19;20434;-40
2023/04/06 03:31:11;;;;;;;17.13;8.40;;;;;;;2.00;100.00;101440.03;7391810;19;20406;-40
2023/04/06 03:33:41;;;;;;;13.33;6.90;;;;;;;1.69;100.00;101408.47;7388870;19;20443;-39
2023/04/06 03:36:11;;;;;;;12.83;6.30;;;;;;;1.70;100.00;101398.41;7390774;19;20418;-38
2023/04/06 03:38:43;;;;;;;15.07;6.20;;;;;;;1.83;100.00;101389.28;7387146;19;20441;-40
2023/04/06 03:41:13;;;;;;;20.13;7.90;;;;;;;1.34;100.00;101356.25;7391487;19;20721;-39
2023/04/06 03:43:43;;;;;;;28.10;13.20;;;;;;;1.51;100.00;101369.56;7390274;19;20419;-39
2023/04/06 03:46:13;;;;;;;57.77;23.90;;;;;;;1.56;100.00;101363.22;7395960;19;20470;-40
2023/04/06 03:48:43;;;;;;;44.13;19.67;;;;;;;1.69;100.00;101361.00;7374096;19;20446;-39
2023/04/06 03:51:13;;;;;;;25.40;12.10;;;;;;;1.50;100.00;101339.78;7398557;19;20410;-39
2023/04/06 03:53:45;;;;;;;14.67;6.80;;;;;;;0.97;100.00;101322.47;7396260;19;20444;-40
2023/04/06 03:56:15;;;;;;;16.13;8.73;;;;;;;0.58;100.00;101335.16;7398005;19;20443;-38
2023/04/06 03:58:45;;;;;;;15.10;7.27;;;;;;;0.61;100.00;101353.19;7395860;19;20443;-38
2023/04/06 04:01:14;;;;;;;18.13;7.57;;;;;;;0.71;100.00;101371.81;7398686;19;20387;-37
2023/04/06 04:03:44;;;;;;;15.27;8.03;;;;;;;0.65;100.00;101380.66;7396369;19;20434;-41
2023/04/06 04:06:14;;;;;;;21.63;9.30;;;;;;;0.54;100.00;101386.41;7396757;19;20455;-39
2023/04/06 04:08:47;;;;;;;15.53;7.20;;;;;;;0.25;100.00;101392.19;7395652;19;20450;-41
2023/04/06 04:11:17;;;;;;;16.27;8.00;;;;;;;0.39;100.00;101421.41;7397327;19;20403;-41
2023/04/06 04:13:46;;;;;;;14.70;7.47;;;;;;;0.28;100.00;101425.50;7396846;19;20765;-42
2023/04/06 04:16:16;;;;;;;13.27;7.30;;;;;;;0.33;100.00;101444.59;7398005;19;20443;-41
2023/04/06 04:18:48;;;;;;;16.53;7.70;;;;;;;0.30;100.00;101457.00;7396284;19;20454;-39
2023/04/06 04:21:17;;;;;;;13.60;7.30;;;;;;;0.23;100.00;101469.84;7397276;19;20383;-40
2023/04/06 04:23:50;;;;;;;264.80;107.07;;;;;;;0.85;100.00;101511.19;7397547;19;20433;-39
2023/04/06 04:26:19;;;;;;;34.87;15.97;;;;;;;1.16;100.00;101497.84;7396853;19;20437;-36
2023/04/06 04:28:49;;;;;;;34.40;16.17;;;;;;;1.50;100.00;101489.88;7395248;19;20447;-39
2023/04/06 04:31:21;;;;;;;20.87;9.50;;;;;;;0.79;100.00;101429.31;7399374;19;20759;-39
2023/04/06 04:33:51;;;;;;;13.80;7.90;;;;;;;0.43;100.00;101430.22;7396318;19;20435;-40
2023/04/06 04:36:21;;;;;;;14.87;6.33;;;;;;;-0.31;100.00;101409.81;7396714;19;20427;-40
2023/04/06 04:38:53;;;;;;;11.70;6.67;;;;;;;-0.56;100.00;101445.50;7395254;19;20439;-38
2023/04/06 04:41:23;;;;;;;11.80;6.93;;;;;;;-0.62;100.00;101470.25;7396744;19;20914;-40
2023/04/06 04:43:53;;;;;;;14.60;7.07;;;;;;;-0.69;100.00;101505.13;7395112;19;20422;-40
2023/04/06 04:46:22;;;;;;;19.23;7.60;;;;;;;-0.55;100.00;101528.41;7397353;19;20455;-39
2023/04/06 04:48:52;;;;;;;17.57;8.80;;;;;;;-0.39;100.00;101545.13;7394540;19;20438;-41
2023/04/06 04:51:22;;;;;;;18.33;9.00;;;;;;;-0.07;100.00;101575.28;7396727;19;20411;-39
2023/04/06 04:53:54;;;;;;;13.40;7.40;;;;;;;-0.39;100.00;101555.25;7395154;19;20444;-40
2023/04/06 04:56:25;;;;;;;17.27;7.43;;;;;;;-0.74;100.00;101551.91;7396268;19;20422;-41
2023/04/06 04:58:54;;;;;;;12.83;7.10;;;;;;;-0.87;100.00;101569.19;7394655;19;20443;-40
2023/04/06 05:01:24;;;;;;;15.35;7.07;;;;;;;-0.89;100.00;101593.44;7396813;19;20387;-39
2023/04/06 05:03:54;;;;;;;13.50;6.70;;;;;;;-1.01;100.00;101609.22;7392558;19;20218;-39
2023/04/06 05:06:25;;;;;;;14.43;7.07;;;;;;;-1.05;100.00;101629.00;7394297;19;20181;-39
2023/04/06 05:08:57;;;;;;;12.13;6.53;;;;;;;-0.99;100.00;101666.00;7394374;19;20222;-39
2023/04/06 05:11:27;;;;;;;39.15;15.82;;;;;;;-0.87;100.00;101670.53;7398347;19;20411;-40
2023/04/06 05:13:57;;;;;;;21.90;9.90;;;;;;;-0.88;100.00;101682.31;7395252;19;20191;-40
2023/04/06 05:16:27;;;;;;;21.65;8.25;;;;;;;-0.83;100.00;101692.91;7396465;19;20463;-41
2023/04/06 05:18:57;;;;;;;16.15;7.07;;;;;;;-0.81;100.00;101701.59;7395619;19;20190;-40
2023/04/06 05:21:27;;;;;;;21.53;9.13;;;;;;;-0.74;100.00;101719.22;7397812;19;20138;-41
2023/04/06 05:24:01;;;;;;;19.15;8.38;;;;;;;-0.66;100.00;101716.56;7394510;19;20475;-44
2023/04/06 05:26:31;;;;;;;19.02;8.77;;;;;;;-0.66;100.00;101720.00;7394972;19;20662;-40
2023/04/06 05:29:01;;;;;;;18.65;7.35;;;;;;;-0.60;100.00;101722.25;7393590;19;20194;-40
2023/04/06 05:31:31;;;;;;;21.67;9.65;;;;;;;-0.54;100.00;101712.75;7396252;19;20159;-39
2023/04/06 05:34:01;;;;;;;21.30;9.27;;;;;;;-0.49;100.00;101718.28;7393320;19;20194;-41
2023/04/06 05:36:31;;;;;;;16.48;7.50;;;;;;;-0.56;100.00;101711.69;7396804;19;20180;-38
2023/04/06 05:39:04;;;;;;;14.38;7.75;;;;;;;-0.46;100.00;101716.94;7394216;19;21035;-39
2023/04/06 05:41:34;;;;;;;17.83;8.32;;;;;;;-0.41;100.00;101714.91;7396207;19;20211;-38
2023/04/06 05:44:03;;;;;;;13.25;7.05;;;;;;;-0.46;100.00;101711.88;7394682;19;20550;-39
2023/04/06 05:46:33;;;;;;;15.23;7.63;;;;;;;-0.42;100.00;101711.44;7394717;19;20193;-38
2023/04/06 05:49:03;;;;;;;20.00;9.50;;;;;;;-0.30;100.00;101714.31;7393076;19;20270;-40
2023/04/06 05:51:35;;;;;;;17.70;7.77;;;;;;;-0.18;100.00;101716.31;7395541;19;20154;-38
2023/04/06 05:54:07;;;;;;;16.60;8.73;;;;;;;-0.22;100.00;101706.59;7392506;19;20467;-38
2023/04/06 05:56:37;;;;;;;20.65;8.52;;;;;;;-0.23;100.00;101705.69;7395025;19;20175;-38
2023/04/06 05:59:07;;;;;;;24.33;10.50;;;;;;;-0.14;100.00;101710.81;7393070;19;20194;-41
2023/04/06 06:01:40;;;;;;;34.83;12.90;;;;;;;0.01;100.00;101720.69;7395174;19;20151;-43
2023/04/06 06:04:10;;;;;;;27.55;10.85;;;;;;;0.09;100.00;101714.72;7391286;19;20510;-39
2023/04/06 06:06:40;;;;;;;20.27;9.32;;;;;;;0.27;100.00;101718.22;7395340;19;20171;-41
2023/04/06 06:09:12;;;;;;;22.93;9.73;;;;;;;0.29;100.00;101706.53;7391407;19;20198;-38
2023/04/06 06:11:42;;;;;;;16.67;9.57;;;;;;;0.46;100.00;101702.25;7394851;19;20481;-39
2023/04/06 06:14:11;;;;;;;18.50;10.17;;;;;;;0.62;100.00;101686.84;7392504;19;20482;-38
2023/04/06 06:16:41;;;;;;;17.17;9.20;;;;;;;0.77;100.00;101660.38;7393469;19;20435;-41
2023/04/06 06:19:11;;;;;;;14.87;8.40;;;;;;;0.87;100.00;101625.69;7392523;19;20443;-39
2023/04/06 06:21:40;;;;;;;18.63;9.80;;;;;;;0.83;100.00;101599.09;7394990;19;20412;-39
2023/04/06 06:24:13;;;;;;;16.50;9.50;;;;;;;0.86;100.00;101579.03;7392422;19;20439;-42
2023/04/06 06:26:43;;;;;;;17.50;8.83;;;;;;;0.99;100.00;101554.78;7392530;19;20434;-42
2023/04/06 06:29:12;;;;;;;18.47;9.50;;;;;;;1.00;100.00;101536.22;7392538;19;20447;-39
2023/04/06 06:31:42;;;;;;;15.60;7.93;;;;;;;1.08;100.00;101517.50;7394727;19;20408;-44
2023/04/06 06:34:12;;;;;;;20.20;10.50;;;;;;;1.20;100.00;101503.38;7392304;19;20431;-41
2023/04/06 06:36:42;;;;;;;17.70;9.37;;;;;;;1.47;100.00;101495.56;7393259;19;20641;-40
2023/04/06 06:39:18;;;;;;;24.53;12.00;;;;;;;1.60;100.00;101461.97;7391930;19;20442;-41
2023/04/06 06:41:47;;;;;;;18.23;9.53;;;;;;;1.65;100.00;101436.94;7392388;19;20416;-38
2023/04/06 06:44:17;;;;;;;44.40;17.70;;;;;;;1.84;100.00;101419.97;7393067;19;20433;-39
2023/04/06 06:46:47;;;;;;;19.83;10.40;;;;;;;1.86;100.00;101393.00;7393019;19;20434;-40
2023/04/06 06:49:16;;;;;;;20.63;11.10;;;;;;;2.08;100.00;101369.41;7392363;19;20950;-40
2023/04/06 06:51:46;;;;;;;28.47;11.60;;;;;;;2.82;100.00;101386.59;7392621;19;20391;-38
2023/04/06 06:54:19;;;;;;;47.37;22.33;;;;;;;3.75;100.00;101406.81;7391894;19;20435;-40
2023/04/06 06:56:48;;;;;;;23.20;12.20;;;;;;;3.73;100.00;101346.19;7388674;19;20459;-41
2023/04/06 06:59:18;;;;;;;102.17;44.37;;;;;;;4.39;100.00;101319.78;7392228;19;20963;-40
2023/04/06 07:01:48;;;;;;;53.67;27.40;;;;;;;5.04;100.00;101302.34;7392556;19;20431;-39
2023/04/06 07:04:18;;;;;;;19.60;9.97;;;;;;;4.62;100.00;101297.63;7392564;19;20419;-40
2023/04/06 07:06:47;;;;;;;16.57;10.30;;;;;;;4.35;100.00;101284.53;7392665;19;20443;-39
2023/04/06 07:09:20;;;;;;;16.23;9.70;;;;;;;4.23;100.00;101301.50;7393880;19;20447;-40
2023/04/06 07:11:50;;;;;;;14.97;9.80;;;;;;;3.91;100.00;101344.22;7392204;19;20400;-41
2023/04/06 07:14:20;;;;;;;17.10;8.87;;;;;;;3.99;100.00;101343.16;7392018;19;20443;-40
2023/04/06 07:16:50;;;;;;;17.43;9.73;;;;;;;4.07;100.00;101341.19;7391114;19;20499;-39
2023/04/06 07:19:20;;;;;;;18.47;9.90;;;;;;;4.16;100.00;101330.81;7389357;19;20460;-38
2023/04/06 07:21:52;;;;;;;19.00;9.23;;;;;;;4.14;100.00;101351.13;7397788;19;20399;-38
2023/04/06 07:24:24;;;;;;;14.47;8.47;;;;;;;4.23;100.00;101355.13;7394564;19;20440;-39
2023/04/06 07:26:54;;;;;;;27.37;14.27;;;;;;;4.27;100.00;101359.72;7398083;19;20431;-39
2023/04/06 07:29:24;;;;;;;39.33;17.57;;;;;;;4.41;100.00;101343.78;7396085;19;20441;-40
2023/04/06 07:31:53;;;;;;;35.17;16.97;;;;;;;4.65;100.00;101320.84;7395785;19;20395;-41
2023/04/06 07:34:23;;;;;;;17.93;8.50;;;;;;;4.52;100.00;101392.28;7395894;19;20792;-40
2023/04/06 07:36:54;;;;;;;11.93;7.43;;;;;;;4.54;100.00;101424.84;7395939;19;20443;-41
2023/04/06 07:39:26;;;;;;;15.90;7.00;;;;;;;4.54;100.00;101454.63;7396173;19;20418;-40
2023/04/06 07:41:56;;;;;;;13.70;7.23;;;;;;;4.67;100.00;101453.91;7396660;19;20398;-42
2023/04/06 07:44:26;;;;;;;14.20;7.40;;;;;;;4.81;100.00;101457.50;7396536;19;20436;-39
2023/04/06 07:46:56;;;;;;;12.97;7.27;;;;;;;4.89;100.00;101482.00;7395655;19;20439;-41
2023/04/06 07:49:26;;;;;;;13.57;7.60;;;;;;;4.89;100.00;101505.03;7396964;19;20471;-40
2023/04/06 07:51:56;;;;;;;10.40;6.23;;;;;;;4.99;100.00;101519.41;7399085;19;20403;-41
2023/04/06 07:54:29;;;;;;;13.53;7.63;;;;;;;4.98;100.00;101522.75;7396547;19;21016;-41
2023/04/06 07:56:59;;;;;;;14.83;6.33;;;;;;;5.04;100.00;101523.22;7396694;19;20465;-41
2023/04/06 07:59:29;;;;;;;14.77;6.83;;;;;;;5.12;100.00;101540.03;7396170;19;20435;-41
2023/04/06 08:01:59;;;;;;;21.57;10.63;;;;;;;5.18;100.00;101539.59;7396377;19;20407;-42
2023/04/06 08:04:31;;;;;;;14.07;7.40;;;;;;;5.23;100.00;101545.97;7396305;19;20890;-43
2023/04/06 08:07:01;;;;;;;21.67;6.70;;;;;;;5.27;100.00;101548.00;7396110;19;20444;-40
2023/04/06 08:09:33;;;;;;;14.30;5.63;;;;;;;5.49;100.00;101557.28;7396569;19;20447;-40
2023/04/06 08:12:03;;;;;;;11.90;5.20;;;;;;;5.61;100.00;101564.09;7399423;19;20387;-40
2023/04/06 08:14:33;;;;;;;9.63;5.33;;;;;;;5.70;100.00;101582.72;7398334;19;20443;-41
2023/04/06 08:17:03;;;;;;;10.23;4.80;;;;;;;5.76;100.00;101580.63;7395642;19;20459;-43
2023/04/06 08:19:35;;;;;;;12.50;5.53;;;;;;;5.92;100.00;101581.75;7399808;19;20857;-41
2023/04/06 08:22:05;;;;;;;13.80;7.37;;;;;;;6.05;99.91;101588.72;7399613;19;20406;-39
2023/04/06 08:24:37;;;;;;;11.20;4.60;;;;;;;6.08;98.94;101592.41;7399216;19;20467;-39
2023/04/06 08:27:07;;;;;;;12.53;5.20;;;;;;;6.17;99.49;101583.59;7396704;19;20451;-40
2023/04/06 08:29:37;;;;;;;10.70;4.97;;;;;;;6.18;96.88;101587.94;7399409;19;20451;-43
2023/04/06 08:32:07;;;;;;;10.93;4.43;;;;;;;6.27;96.10;101591.19;7396279;19;20431;-40
2023/04/06 08:34:36;;;;;;;8.73;4.80;;;;;;;6.29;95.88;101593.81;7398921;19;20440;-42
2023/04/06 08:37:06;;;;;;;10.77;5.73;;;;;;;6.38;94.74;101596.16;7397502;19;20447;-39
2023/04/06 08:39:38;;;;;;;12.50;5.70;;;;;;;6.22;94.29;101595.06;7398217;19;20455;-41
2023/04/06 08:42:14;;;;;;;17.00;8.70;;;;;;;6.46;97.07;101593.38;7395080;19;20444;-38
2023/04/06 08:44:45;;;;;;;17.23;6.10;;;;;;;6.54;93.96;101599.06;7397409;19;20466;-41
2023/04/06 08:47:15;;;;;;;11.73;4.53;;;;;;;6.60;91.70;101596.03;7390601;19;20464;-39
2023/04/06 08:49:46;;;;;;;12.20;5.00;;;;;;;6.60;91.32;101606.28;7394848;19;20407;-40
2023/04/06 08:52:18;;;;;;;9.10;4.37;;;;;;;6.73;91.50;101613.19;7396057;19;20789;-40
2023/04/06 08:54:50;;;;;;;7.77;4.23;;;;;;;6.65;89.54;101617.78;7396031;19;20432;-40
2023/04/06 08:57:21;;;;;;;15.83;4.33;;;;;;;6.63;87.84;101621.91;7393810;19;20450;-38
2023/04/06 08:59:51;;;;;;;11.73;3.17;;;;;;;6.59;86.69;101615.69;7396041;19;20418;-39
2023/04/06 09:02:22;;;;;;;13.53;6.70;;;;;;;6.81;88.45;101621.44;7394567;19;20424;-39
2023/04/06 09:04:55;;;;;;;9.70;4.67;;;;;;;7.03;88.86;101624.72;7396418;19;20403;-39
2023/04/06 09:07:25;;;;;;;10.97;4.90;;;;;;;7.11;87.62;101621.78;7393347;19;20443;-42
2023/04/06 09:09:57;;;;;;;8.87;3.63;;;;;;;7.11;85.78;101622.72;7396534;19;20946;-39
2023/04/06 09:12:29;;;;;;;6.60;3.20;;;;;;;7.02;83.75;101622.03;7396580;19;20443;-40
2023/04/06 09:14:59;;;;;;;12.70;5.77;;;;;;;7.22;85.03;101627.69;7396045;19;20422;-41
2023/04/06 09:17:32;;;;;;;9.90;4.80;;;;;;;7.45;83.70;101618.09;7393476;19;20425;-39
2023/04/06 09:20:03;;;;;;;11.80;6.00;;;;;;;7.50;83.91;101629.59;7397005;19;20407;-40
2023/04/06 09:22:38;;;;;;;8.50;4.17;;;;;;;7.59;82.70;101627.63;7391948;19;20391;-40
2023/04/06 09:25:12;;;;;;;8.77;4.07;;;;;;;7.83;83.55;101627.50;7395224;19;20399;-40
2023/04/06 09:27:43;;;;;;;10.53;4.43;;;;;;;7.79;80.37;101625.53;7393588;19;21138;-41
2023/04/06 09:30:16;;;;;;;7.97;4.00;;;;;;;7.91;81.19;101628.94;7395978;19;20417;-41
2023/04/06 09:32:51;;;;;;;9.77;5.50;;;;;;;7.75;80.41;101623.53;7392649;19;21119;-40
2023/04/06 09:35:22;;;;;;;14.27;7.00;;;;;;;7.99;81.88;101623.41;7397453;19;20415;-41
2023/04/06 09:37:53;;;;;;;9.87;4.73;;;;;;;8.14;81.09;101623.53;7392117;19;20975;-41
2023/04/06 09:40:25;;;;;;;9.40;4.60;;;;;;;8.27;80.69;101635.50;7396071;19;20416;-39
2023/04/06 09:42:57;;;;;;;9.30;4.57;;;;;;;7.80;78.35;101612.78;7388710;19;20427;-38
2023/04/06 09:45:27;;;;;;;7.73;3.90;;;;;;;8.09;79.33;101615.50;7394456;19;20415;-41
2023/04/06 09:47:56;;;;;;;13.43;6.40;;;;;;;8.37;79.16;101610.47;7390856;19;20470;-39
2023/04/06 09:50:27;;;;;;;9.00;4.50;;;;;;;8.38;77.47;101611.38;7396462;19;20931;-41
2023/04/06 09:52:57;;;;;;;12.83;4.90;;;;;;;8.42;77.64;101603.06;7391699;19;20443;-41
2023/04/06 09:55:33;;;;;;;18.60;8.27;;;;;;;8.67;78.39;101607.19;7394240;19;20427;-41
2023/04/06 09:58:07;;;;;;;23.00;11.70;;;;;;;8.68;79.00;101603.88;7391869;19;20467;-39
2023/04/06 10:00:45;;;;;;;27.97;10.60;;;;;;;8.75;78.74;101610.28;7394854;19;20407;-44
2023/04/06 10:03:23;;;;;;;17.13;7.23;;;;;;;8.77;77.54;101598.41;7392398;19;20446;-40
2023/04/06 10:05:58;;;;;;;48.87;19.20;;;;;;;8.95;79.44;101601.22;7392787;19;20399;-42
2023/04/06 10:08:30;;;;;;;17.10;7.67;;;;;;;9.13;78.94;101610.88;7392724;19;20446;-40
2023/04/06 10:11:05;;;;;;;13.87;6.00;;;;;;;8.42;78.34;101602.16;7393295;19;20432;-40
2023/04/06 10:13:35;;;;;;;8.83;4.90;;;;;;;8.18;77.31;101589.50;7393361;19;20446;-41
2023/04/06 10:16:06;;;;;;;11.57;6.50;;;;;;;8.46;78.23;101592.16;7392798;19;20427;-40
2023/04/06 10:18:36;;;;;;;17.60;8.20;;;;;;;8.60;80.85;101597.31;7392617;19;20863;-38
2023/04/06 10:21:10;;;;;;;13.47;4.63;;;;;;;8.38;77.95;101593.38;7393732;19;20434;-39
2023/04/06 10:23:42;;;;;;;9.63;4.10;;;;;;;8.37;79.33;101589.03;7390078;19;20814;-41
2023/04/06 10:26:19;;;;;;;13.07;5.23;;;;;;;8.61;80.79;101599.13;7394681;19;20518;-40
2023/04/06 10:28:50;;;;;;;8.47;4.23;;;;;;;8.56;79.85;101598.81;7391880;19;20443;-39
2023/04/06 10:31:27;;;;;;;10.13;4.30;;;;;;;9.03;81.04;101610.31;7393411;19;20447;-39
2023/04/06 10:33:58;;;;;;;9.90;4.90;;;;;;;9.02;80.70;101611.09;7391338;19;20439;-40
2023/04/06 10:36:34;;;;;;;10.50;5.47;;;;;;;9.35;80.23;101604.44;7393923;19;20423;-40
2023/04/06 10:39:06;;;;;;;15.20;6.47;;;;;;;9.35;78.78;101607.03;7391445;19;20451;-40
2023/04/06 10:41:44;;;;;;;8.33;4.20;;;;;;;9.58;75.39;101604.16;7390052;19;20431;-41
2023/04/06 10:44:20;;;;;;;6.93;4.07;;;;;;;9.31;72.82;101587.94;7392698;19;20462;-42
2023/04/06 10:46:56;;;;;;;8.23;3.90;;;;;;;9.14;72.88;101584.34;7392261;19;20848;-40
2023/04/06 10:49:27;;;;;;;8.50;4.47;;;;;;;9.39;74.10;101601.28;7392646;19;20486;-41
2023/04/06 10:51:58;;;;;;;13.10;5.80;;;;;;;9.38;73.23;101592.66;7391513;19;20786;-41
2023/04/06 10:54:31;;;;;;;13.50;5.93;;;;;;;9.67;73.65;101587.44;7394482;19;20447;-38
2023/04/06 10:57:03;;;;;;;16.93;5.70;;;;;;;9.56;72.54;101580.00;7399657;19;20467;-42
2023/04/06 10:59:33;;;;;;;16.20;6.40;;;;;;;9.67;72.79;101584.88;7400782;19;20502;-42
2023/04/06 11:02:03;;;;;;;12.07;5.83;;;;;;;9.74;72.53;101584.41;7398329;19;20399;-40
2023/04/06 11:04:33;;;;;;;13.70;6.73;;;;;;;9.91;72.26;101589.69;7397104;19;20821;-40
2023/04/06 11:07:02;;;;;;;12.40;5.40;;;;;;;9.98;72.22;101584.06;7397315;19;20527;-38
2023/04/06 11:09:36;;;;;;;16.70;8.33;;;;;;;10.16;71.74;101588.50;7398515;19;20439;-40
2023/04/06 11:12:09;;;;;;;13.93;6.70;;;;;;;10.02;71.11;101586.03;7397868;19;20938;-39
2023/04/06 11:14:38;;;;;;;22.60;10.77;;;;;;;10.18;72.53;101589.47;7401955;19;20467;-39
2023/04/06 11:17:08;;;;;;;11.17;6.03;;;;;;;10.33;71.74;101582.63;7395733;19;20451;-38
2023/04/06 11:19:38;;;;;;;16.07;6.40;;;;;;;10.23;71.44;101586.38;7398270;19;20407;-40
2023/04/06 11:22:11;;;;;;;10.17;5.57;;;;;;;9.84;69.92;101575.53;7396051;19;20400;-40
2023/04/06 11:24:41;;;;;;;16.30;7.90;;;;;;;9.71;70.22;101566.22;7399390;19;20403;-40
2023/04/06 11:27:14;;;;;;;15.87;7.40;;;;;;;10.00;72.21;101567.91;7395257;19;20458;-41
2023/04/06 11:29:45;;;;;;;31.30;13.13;;;;;;;10.09;71.36;101572.69;7398482;19;20419;-41
2023/04/06 11:32:24;;;;;;;21.40;11.50;;;;;;;9.98;72.02;101573.75;7395646;19;20412;-43